sensor_id;sensor_type;location;lat;lon;timestamp;pressure;altitude;pressure_sealevel;temperature
18782;BMP180;9519;51.890;8.970;2022-07-05T00:01:04;99770.00;;;16.10
18782;BMP180;9519;51.890;8.970;2022-07-05T00:06:07;99776.00;;;16.00
18782;BMP180;9519;51.890;8.970;2022-07-05T00:11:10;99777.00;;;15.90
18782;BMP180;9519;51.890;8.970;2022-07-05T00:16:12;99771.00;;;15.80
18782;BMP180;9519;51.890;8.970;2022-07-05T00:21:14;99778.00;;;15.70
18782;BMP180;9519;51.890;8.970;2022-07-05T00:26:18;99778.00;;;15.70
18782;BMP180;9519;51.890;8.970;2022-07-05T00:31:20;99784.00;;;15.50
18782;BMP180;9519;51.890;8.970;2022-07-05T00:36:22;99785.00;;;15.50
18782;BMP180;9519;51.890;8.970;2022-07-05T00:41:26;99792.00;;;15.40
18782;BMP180;9519;51.890;8.970;2022-07-05T00:46:29;99793.00;;;15.30
18782;BMP180;9519;51.890;8.970;2022-07-05T00:51:36;99801.00;;;15.10
18782;BMP180;9519;51.890;8.970;2022-07-05T00:56:39;99801.00;;;15.00
18782;BMP180;9519;51.890;8.970;2022-07-05T01:01:42;99792.00;;;15.00
18782;BMP180;9519;51.890;8.970;2022-07-05T01:06:47;99794.00;;;14.90
18782;BMP180;9519;51.890;8.970;2022-07-05T01:11:51;99792.00;;;14.80
18782;BMP180;9519;51.890;8.970;2022-07-05T01:16:55;99803.00;;;14.70
18782;BMP180;9519;51.890;8.970;2022-07-05T01:22:00;99790.00;;;14.60
18782;BMP180;9519;51.890;8.970;2022-07-05T01:27:09;99794.00;;;14.50
18782;BMP180;9519;51.890;8.970;2022-07-05T01:32:12;99791.00;;;14.50
18782;BMP180;9519;51.890;8.970;2022-07-05T01:37:14;99794.00;;;14.40
18782;BMP180;9519;51.890;8.970;2022-07-05T01:42:17;99799.00;;;14.30
18782;BMP180;9519;51.890;8.970;2022-07-05T01:47:20;99775.00;;;14.30
18782;BMP180;9519;51.890;8.970;2022-07-05T01:52:24;99785.00;;;14.20
18782;BMP180;9519;51.890;8.970;2022-07-05T01:57:28;99798.00;;;14.10
18782;BMP180;9519;51.890;8.970;2022-07-05T02:02:30;99799.00;;;14.00
18782;BMP180;9519;51.890;8.970;2022-07-05T02:07:32;99789.00;;;13.90
18782;BMP180;9519;51.890;8.970;2022-07-05T02:12:36;99802.00;;;13.80
18782;BMP180;9519;51.890;8.970;2022-07-05T02:17:38;99817.00;;;13.80
18782;BMP180;9519;51.890;8.970;2022-07-05T02:22:40;99808.00;;;13.80
18782;BMP180;9519;51.890;8.970;2022-07-05T02:27:44;99806.00;;;13.80
18782;BMP180;9519;51.890;8.970;2022-07-05T02:32:47;99810.00;;;13.90
18782;BMP180;9519;51.890;8.970;2022-07-05T02:37:49;99820.00;;;13.90
18782;BMP180;9519;51.890;8.970;2022-07-05T02:42:52;99825.00;;;13.80
18782;BMP180;9519;51.890;8.970;2022-07-05T02:47:54;99817.00;;;13.80
18782;BMP180;9519;51.890;8.970;2022-07-05T02:52:56;99818.00;;;13.70
18782;BMP180;9519;51.890;8.970;2022-07-05T02:58:00;99825.00;;;13.70
18782;BMP180;9519;51.890;8.970;2022-07-05T03:03:02;99828.00;;;13.70
18782;BMP180;9519;51.890;8.970;2022-07-05T03:08:06;99822.00;;;13.70
18782;BMP180;9519;51.890;8.970;2022-07-05T03:13:11;99827.00;;;13.70
18782;BMP180;9519;51.890;8.970;2022-07-05T03:18:13;99833.00;;;13.70
18782;BMP180;9519;51.890;8.970;2022-07-05T03:23:15;99837.00;;;13.70
18782;BMP180;9519;51.890;8.970;2022-07-05T03:28:18;99836.00;;;13.70
18782;BMP180;9519;51.890;8.970;2022-07-05T03:33:21;99824.00;;;13.70
18782;BMP180;9519;51.890;8.970;2022-07-05T03:38:23;99838.00;;;13.80
18782;BMP180;9519;51.890;8.970;2022-07-05T03:43:26;99833.00;;;13.80
18782;BMP180;9519;51.890;8.970;2022-07-05T03:48:29;99843.00;;;13.90
18782;BMP180;9519;51.890;8.970;2022-07-05T03:53:31;99837.00;;;14.00
18782;BMP180;9519;51.890;8.970;2022-07-05T03:58:34;99848.00;;;14.00
18782;BMP180;9519;51.890;8.970;2022-07-05T04:03:36;99856.00;;;14.00
18782;BMP180;9519;51.890;8.970;2022-07-05T04:08:39;99850.00;;;14.00
18782;BMP180;9519;51.890;8.970;2022-07-05T04:13:42;99845.00;;;14.10
18782;BMP180;9519;51.890;8.970;2022-07-05T04:18:45;99849.00;;;14.10
18782;BMP180;9519;51.890;8.970;2022-07-05T04:23:49;99845.00;;;14.20
18782;BMP180;9519;51.890;8.970;2022-07-05T04:28:52;99846.00;;;14.20
18782;BMP180;9519;51.890;8.970;2022-07-05T04:33:57;99849.00;;;14.20
18782;BMP180;9519;51.890;8.970;2022-07-05T04:38:59;99855.00;;;14.20
18782;BMP180;9519;51.890;8.970;2022-07-05T04:44:03;99859.00;;;14.30
18782;BMP180;9519;51.890;8.970;2022-07-05T04:49:06;99859.00;;;14.40
18782;BMP180;9519;51.890;8.970;2022-07-05T04:54:08;99859.00;;;14.60
18782;BMP180;9519;51.890;8.970;2022-07-05T04:59:11;99864.00;;;14.60
18782;BMP180;9519;51.890;8.970;2022-07-05T05:04:13;99853.00;;;14.70
18782;BMP180;9519;51.890;8.970;2022-07-05T05:09:15;99854.00;;;14.80
18782;BMP180;9519;51.890;8.970;2022-07-05T05:14:19;99864.00;;;14.80
18782;BMP180;9519;51.890;8.970;2022-07-05T05:19:21;99867.00;;;14.90
18782;BMP180;9519;51.890;8.970;2022-07-05T05:24:23;99861.00;;;15.00
18782;BMP180;9519;51.890;8.970;2022-07-05T05:29:26;99877.00;;;15.00
18782;BMP180;9519;51.890;8.970;2022-07-05T05:34:28;99877.00;;;15.10
18782;BMP180;9519;51.890;8.970;2022-07-05T05:39:30;99890.00;;;15.20
18782;BMP180;9519;51.890;8.970;2022-07-05T05:44:34;99900.00;;;15.30
18782;BMP180;9519;51.890;8.970;2022-07-05T05:49:36;99904.00;;;15.40
18782;BMP180;9519;51.890;8.970;2022-07-05T05:54:38;99904.00;;;15.50
18782;BMP180;9519;51.890;8.970;2022-07-05T05:59:41;99919.00;;;15.60
18782;BMP180;9519;51.890;8.970;2022-07-05T06:04:43;99919.00;;;15.70
18782;BMP180;9519;51.890;8.970;2022-07-05T06:09:45;99923.00;;;15.80
18782;BMP180;9519;51.890;8.970;2022-07-05T06:14:49;99925.00;;;15.90
18782;BMP180;9519;51.890;8.970;2022-07-05T06:19:51;99926.00;;;15.90
18782;BMP180;9519;51.890;8.970;2022-07-05T06:24:53;99936.00;;;15.90
18782;BMP180;9519;51.890;8.970;2022-07-05T06:29:57;99932.00;;;16.00
18782;BMP180;9519;51.890;8.970;2022-07-05T06:34:59;99945.00;;;16.10
18782;BMP180;9519;51.890;8.970;2022-07-05T06:40:01;99934.00;;;16.20
18782;BMP180;9519;51.890;8.970;2022-07-05T06:45:06;99943.00;;;16.20
18782;BMP180;9519;51.890;8.970;2022-07-05T06:50:09;99942.00;;;16.20
18782;BMP180;9519;51.890;8.970;2022-07-05T06:55:11;99943.00;;;16.30
18782;BMP180;9519;51.890;8.970;2022-07-05T07:00:15;99954.00;;;16.40
18782;BMP180;9519;51.890;8.970;2022-07-05T07:05:17;99941.00;;;16.50
18782;BMP180;9519;51.890;8.970;2022-07-05T07:10:20;99931.00;;;16.70
18782;BMP180;9519;51.890;8.970;2022-07-05T07:15:23;99943.00;;;16.90
18782;BMP180;9519;51.890;8.970;2022-07-05T07:20:26;99940.00;;;17.00
18782;BMP180;9519;51.890;8.970;2022-07-05T07:25:28;99935.00;;;17.10
18782;BMP180;9519;51.890;8.970;2022-07-05T07:30:31;99940.00;;;17.20
18782;BMP180;9519;51.890;8.970;2022-07-05T07:35:33;99955.00;;;17.30
18782;BMP180;9519;51.890;8.970;2022-07-05T07:40:36;99941.00;;;17.30
18782;BMP180;9519;51.890;8.970;2022-07-05T07:45:39;99947.00;;;17.40
18782;BMP180;9519;51.890;8.970;2022-07-05T07:50:41;99943.00;;;17.50
18782;BMP180;9519;51.890;8.970;2022-07-05T07:55:44;99933.00;;;17.60
18782;BMP180;9519;51.890;8.970;2022-07-05T08:00:47;99931.00;;;17.80
18782;BMP180;9519;51.890;8.970;2022-07-05T08:05:49;99930.00;;;17.90
18782;BMP180;9519;51.890;8.970;2022-07-05T08:10:51;99933.00;;;18.10
18782;BMP180;9519;51.890;8.970;2022-07-05T08:15:55;99924.00;;;18.10
18782;BMP180;9519;51.890;8.970;2022-07-05T08:20:57;99916.00;;;18.20
18782;BMP180;9519;51.890;8.970;2022-07-05T08:26:16;99919.00;;;18.30
18782;BMP180;9519;51.890;8.970;2022-07-05T08:31:20;99909.00;;;18.30
18782;BMP180;9519;51.890;8.970;2022-07-05T08:36:22;99919.00;;;18.40
18782;BMP180;9519;51.890;8.970;2022-07-05T08:41:24;99900.00;;;18.40
18782;BMP180;9519;51.890;8.970;2022-07-05T08:46:31;99893.00;;;18.50
18782;BMP180;9519;51.890;8.970;2022-07-05T08:51:37;99905.00;;;18.80
18782;BMP180;9519;51.890;8.970;2022-07-05T08:56:41;99875.00;;;18.90
18782;BMP180;9519;51.890;8.970;2022-07-05T09:01:48;99875.00;;;19.00
18782;BMP180;9519;51.890;8.970;2022-07-05T09:06:54;99887.00;;;19.20
18782;BMP180;9519;51.890;8.970;2022-07-05T09:11:57;99889.00;;;19.10
18782;BMP180;9519;51.890;8.970;2022-07-05T09:17:02;99879.00;;;19.10
18782;BMP180;9519;51.890;8.970;2022-07-05T09:22:05;99869.00;;;19.20
18782;BMP180;9519;51.890;8.970;2022-07-05T09:27:09;99893.00;;;19.50
18782;BMP180;9519;51.890;8.970;2022-07-05T09:32:24;99890.00;;;19.50
18782;BMP180;9519;51.890;8.970;2022-07-05T09:37:42;99886.00;;;19.40
18782;BMP180;9519;51.890;8.970;2022-07-05T09:42:45;99883.00;;;19.60
18782;BMP180;9519;51.890;8.970;2022-07-05T09:47:49;99891.00;;;19.70
18782;BMP180;9519;51.890;8.970;2022-07-05T09:52:56;99888.00;;;19.70
18782;BMP180;9519;51.890;8.970;2022-07-05T09:57:59;99880.00;;;19.60
18782;BMP180;9519;51.890;8.970;2022-07-05T10:03:02;99885.00;;;19.70
18782;BMP180;9519;51.890;8.970;2022-07-05T10:08:05;99889.00;;;19.90
18782;BMP180;9519;51.890;8.970;2022-07-05T10:13:07;99890.00;;;19.90
18782;BMP180;9519;51.890;8.970;2022-07-05T10:18:13;99895.00;;;19.70
18782;BMP180;9519;51.890;8.970;2022-07-05T10:23:19;99892.00;;;19.60
18782;BMP180;9519;51.890;8.970;2022-07-05T10:28:22;99893.00;;;19.60
18782;BMP180;9519;51.890;8.970;2022-07-05T10:33:26;99872.00;;;19.70
18782;BMP180;9519;51.890;8.970;2022-07-05T10:38:29;99875.00;;;19.90
18782;BMP180;9519;51.890;8.970;2022-07-05T10:43:31;99866.00;;;20.10
18782;BMP180;9519;51.890;8.970;2022-07-05T10:48:35;99846.00;;;20.30
18782;BMP180;9519;51.890;8.970;2022-07-05T10:54:02;99845.00;;;20.60
18782;BMP180;9519;51.890;8.970;2022-07-05T10:59:08;99829.00;;;20.70
18782;BMP180;9519;51.890;8.970;2022-07-05T11:04:31;99846.00;;;20.70
18782;BMP180;9519;51.890;8.970;2022-07-05T11:09:35;99838.00;;;20.70
18782;BMP180;9519;51.890;8.970;2022-07-05T11:14:38;99842.00;;;20.60
18782;BMP180;9519;51.890;8.970;2022-07-05T11:20:11;99835.00;;;20.80
18782;BMP180;9519;51.890;8.970;2022-07-05T11:25:14;99828.00;;;21.00
18782;BMP180;9519;51.890;8.970;2022-07-05T11:30:22;99830.00;;;21.20
18782;BMP180;9519;51.890;8.970;2022-07-05T11:35:32;99819.00;;;21.30
18782;BMP180;9519;51.890;8.970;2022-07-05T11:40:37;99826.00;;;21.40
18782;BMP180;9519;51.890;8.970;2022-07-05T11:45:39;99818.00;;;21.40
18782;BMP180;9519;51.890;8.970;2022-07-05T11:50:46;99817.00;;;21.30
18782;BMP180;9519;51.890;8.970;2022-07-05T11:55:55;99825.00;;;21.50
18782;BMP180;9519;51.890;8.970;2022-07-05T12:00:58;238061.00;;;205.40
18782;BMP180;9519;51.890;8.970;2022-07-05T12:06:12;238061.00;;;205.40
18782;BMP180;9519;51.890;8.970;2022-07-05T12:11:14;238061.00;;;205.40
18782;BMP180;9519;51.890;8.970;2022-07-05T12:16:34;99807.00;;;21.80
18782;BMP180;9519;51.890;8.970;2022-07-05T12:21:38;99797.00;;;21.80
18782;BMP180;9519;51.890;8.970;2022-07-05T12:26:40;99786.00;;;21.90
18782;BMP180;9519;51.890;8.970;2022-07-05T12:32:01;99769.00;;;21.90
18782;BMP180;9519;51.890;8.970;2022-07-05T12:37:05;99771.00;;;22.00
18782;BMP180;9519;51.890;8.970;2022-07-05T12:42:07;99770.00;;;22.00
18782;BMP180;9519;51.890;8.970;2022-07-05T12:47:13;99766.00;;;22.00
18782;BMP180;9519;51.890;8.970;2022-07-05T12:52:16;99757.00;;;22.20
18782;BMP180;9519;51.890;8.970;2022-07-05T12:57:18;99757.00;;;22.20
18782;BMP180;9519;51.890;8.970;2022-07-05T13:02:40;99778.00;;;21.90
18782;BMP180;9519;51.890;8.970;2022-07-05T13:07:44;99774.00;;;21.70
18782;BMP180;9519;51.890;8.970;2022-07-05T13:12:47;99773.00;;;21.50
18782;BMP180;9519;51.890;8.970;2022-07-05T13:17:50;99785.00;;;21.60
18782;BMP180;9519;51.890;8.970;2022-07-05T13:22:54;99772.00;;;21.60
18782;BMP180;9519;51.890;8.970;2022-07-05T13:27:56;99765.00;;;21.60
18782;BMP180;9519;51.890;8.970;2022-07-05T13:32:58;99775.00;;;21.60
18782;BMP180;9519;51.890;8.970;2022-07-05T13:38:01;99772.00;;;21.70
18782;BMP180;9519;51.890;8.970;2022-07-05T13:43:03;99781.00;;;22.00
18782;BMP180;9519;51.890;8.970;2022-07-05T13:48:06;99787.00;;;22.10
18782;BMP180;9519;51.890;8.970;2022-07-05T13:53:11;99783.00;;;21.90
18782;BMP180;9519;51.890;8.970;2022-07-05T13:58:13;99776.00;;;21.90
18782;BMP180;9519;51.890;8.970;2022-07-05T14:03:18;99770.00;;;22.20
18782;BMP180;9519;51.890;8.970;2022-07-05T14:08:23;99777.00;;;22.30
18782;BMP180;9519;51.890;8.970;2022-07-05T14:13:26;99754.00;;;22.60
18782;BMP180;9519;51.890;8.970;2022-07-05T14:18:29;99756.00;;;22.70
18782;BMP180;9519;51.890;8.970;2022-07-05T14:23:33;99772.00;;;22.70
18782;BMP180;9519;51.890;8.970;2022-07-05T14:28:35;99768.00;;;22.50
18782;BMP180;9519;51.890;8.970;2022-07-05T14:33:37;99750.00;;;22.40
18782;BMP180;9519;51.890;8.970;2022-07-05T14:38:41;99751.00;;;22.40
18782;BMP180;9519;51.890;8.970;2022-07-05T14:43:44;99761.00;;;22.30
18782;BMP180;9519;51.890;8.970;2022-07-05T14:48:46;99769.00;;;22.40
18782;BMP180;9519;51.890;8.970;2022-07-05T14:53:50;99750.00;;;22.60
18782;BMP180;9519;51.890;8.970;2022-07-05T14:58:52;99756.00;;;22.90
18782;BMP180;9519;51.890;8.970;2022-07-05T15:03:54;99754.00;;;23.10
18782;BMP180;9519;51.890;8.970;2022-07-05T15:08:58;99751.00;;;23.60
18782;BMP180;9519;51.890;8.970;2022-07-05T15:14:00;99745.00;;;23.40
18782;BMP180;9519;51.890;8.970;2022-07-05T15:19:04;99768.00;;;23.20
18782;BMP180;9519;51.890;8.970;2022-07-05T15:24:08;99835.00;;;23.10
18782;BMP180;9519;51.890;8.970;2022-07-05T15:29:10;99881.00;;;22.90
18782;BMP180;9519;51.890;8.970;2022-07-05T15:34:13;99877.00;;;22.70
18782;BMP180;9519;51.890;8.970;2022-07-05T15:39:16;99880.00;;;22.60
18782;BMP180;9519;51.890;8.970;2022-07-05T15:44:18;99880.00;;;22.50
18782;BMP180;9519;51.890;8.970;2022-07-05T15:49:20;99866.00;;;22.60
18782;BMP180;9519;51.890;8.970;2022-07-05T15:54:24;99854.00;;;23.10
18782;BMP180;9519;51.890;8.970;2022-07-05T15:59:27;99864.00;;;23.60
18782;BMP180;9519;51.890;8.970;2022-07-05T16:04:29;99841.00;;;23.60
18782;BMP180;9519;51.890;8.970;2022-07-05T16:09:32;99855.00;;;23.60
18782;BMP180;9519;51.890;8.970;2022-07-05T16:14:34;99848.00;;;23.50
18782;BMP180;9519;51.890;8.970;2022-07-05T16:19:37;99848.00;;;23.20
18782;BMP180;9519;51.890;8.970;2022-07-05T16:24:41;99846.00;;;23.00
18782;BMP180;9519;51.890;8.970;2022-07-05T16:29:43;99847.00;;;23.00
18782;BMP180;9519;51.890;8.970;2022-07-05T16:34:46;99844.00;;;23.00
18782;BMP180;9519;51.890;8.970;2022-07-05T16:39:49;99850.00;;;22.80
18782;BMP180;9519;51.890;8.970;2022-07-05T16:44:52;99850.00;;;22.70
18782;BMP180;9519;51.890;8.970;2022-07-05T16:49:54;99846.00;;;22.80
18782;BMP180;9519;51.890;8.970;2022-07-05T16:54:58;99843.00;;;23.10
18782;BMP180;9519;51.890;8.970;2022-07-05T17:00:00;99844.00;;;23.20
18782;BMP180;9519;51.890;8.970;2022-07-05T17:05:03;99842.00;;;23.00
18782;BMP180;9519;51.890;8.970;2022-07-05T17:10:08;99853.00;;;22.80
18782;BMP180;9519;51.890;8.970;2022-07-05T17:15:10;99857.00;;;22.70
18782;BMP180;9519;51.890;8.970;2022-07-05T17:20:13;99874.00;;;22.80
18782;BMP180;9519;51.890;8.970;2022-07-05T17:25:17;99864.00;;;22.80
18782;BMP180;9519;51.890;8.970;2022-07-05T17:30:19;99873.00;;;22.50
18782;BMP180;9519;51.890;8.970;2022-07-05T17:35:21;99781.00;;;22.30
18782;BMP180;9519;51.890;8.970;2022-07-05T17:40:25;99786.00;;;22.00
18782;BMP180;9519;51.890;8.970;2022-07-05T17:45:27;99797.00;;;21.70
18782;BMP180;9519;51.890;8.970;2022-07-05T17:50:29;99803.00;;;21.40
18782;BMP180;9519;51.890;8.970;2022-07-05T17:55:34;99805.00;;;21.20
18782;BMP180;9519;51.890;8.970;2022-07-05T18:00:36;99820.00;;;21.10
18782;BMP180;9519;51.890;8.970;2022-07-05T18:05:38;99829.00;;;20.90
18782;BMP180;9519;51.890;8.970;2022-07-05T18:10:45;99838.00;;;20.80
18782;BMP180;9519;51.890;8.970;2022-07-05T18:15:47;99835.00;;;20.70
18782;BMP180;9519;51.890;8.970;2022-07-05T18:20:51;99834.00;;;20.50
18782;BMP180;9519;51.890;8.970;2022-07-05T18:25:58;99836.00;;;20.40
18782;BMP180;9519;51.890;8.970;2022-07-05T18:31:02;99847.00;;;20.40
18782;BMP180;9519;51.890;8.970;2022-07-05T18:36:13;99843.00;;;20.20
18782;BMP180;9519;51.890;8.970;2022-07-05T18:41:19;99858.00;;;20.10
18782;BMP180;9519;51.890;8.970;2022-07-05T18:46:21;99849.00;;;20.00
18782;BMP180;9519;51.890;8.970;2022-07-05T18:51:24;99869.00;;;20.00
18782;BMP180;9519;51.890;8.970;2022-07-05T18:56:27;99870.00;;;19.90
18782;BMP180;9519;51.890;8.970;2022-07-05T19:01:29;99875.00;;;19.80
18782;BMP180;9519;51.890;8.970;2022-07-05T19:06:32;99887.00;;;19.70
18782;BMP180;9519;51.890;8.970;2022-07-05T19:11:52;99900.00;;;19.60
18782;BMP180;9519;51.890;8.970;2022-07-05T19:17:12;99905.00;;;19.40
18782;BMP180;9519;51.890;8.970;2022-07-05T19:22:14;99906.00;;;19.20
18782;BMP180;9519;51.890;8.970;2022-07-05T19:27:21;99910.00;;;19.10
18782;BMP180;9519;51.890;8.970;2022-07-05T19:32:23;99916.00;;;19.00
18782;BMP180;9519;51.890;8.970;2022-07-05T19:37:26;99916.00;;;19.00
18782;BMP180;9519;51.890;8.970;2022-07-05T19:42:29;99938.00;;;18.90
18782;BMP180;9519;51.890;8.970;2022-07-05T19:47:31;99936.00;;;18.80
18782;BMP180;9519;51.890;8.970;2022-07-05T19:52:34;99928.00;;;18.70
18782;BMP180;9519;51.890;8.970;2022-07-05T19:57:39;99950.00;;;18.60
18782;BMP180;9519;51.890;8.970;2022-07-05T20:02:42;99949.00;;;18.50
18782;BMP180;9519;51.890;8.970;2022-07-05T20:07:45;99964.00;;;18.30
18782;BMP180;9519;51.890;8.970;2022-07-05T20:12:48;99965.00;;;18.20
18782;BMP180;9519;51.890;8.970;2022-07-05T20:17:51;99967.00;;;18.10
18782;BMP180;9519;51.890;8.970;2022-07-05T20:22:54;99973.00;;;18.00
18782;BMP180;9519;51.890;8.970;2022-07-05T20:27:57;99984.00;;;17.90
18782;BMP180;9519;51.890;8.970;2022-07-05T20:33:00;99988.00;;;17.80
18782;BMP180;9519;51.890;8.970;2022-07-05T20:38:02;99984.00;;;17.70
18782;BMP180;9519;51.890;8.970;2022-07-05T20:43:05;99995.00;;;17.70
18782;BMP180;9519;51.890;8.970;2022-07-05T20:48:09;100004.00;;;17.60
18782;BMP180;9519;51.890;8.970;2022-07-05T20:53:11;100007.00;;;17.60
18782;BMP180;9519;51.890;8.970;2022-07-05T20:58:14;100009.00;;;17.50
18782;BMP180;9519;51.890;8.970;2022-07-05T21:03:16;100017.00;;;17.40
18782;BMP180;9519;51.890;8.970;2022-07-05T21:08:18;100036.00;;;17.30
18782;BMP180;9519;51.890;8.970;2022-07-05T21:13:22;100034.00;;;17.20
18782;BMP180;9519;51.890;8.970;2022-07-05T21:18:24;100039.00;;;17.10
18782;BMP180;9519;51.890;8.970;2022-07-05T21:23:27;100036.00;;;17.00
18782;BMP180;9519;51.890;8.970;2022-07-05T21:28:30;100037.00;;;17.00
18782;BMP180;9519;51.890;8.970;2022-07-05T21:33:36;100057.00;;;16.90
18782;BMP180;9519;51.890;8.970;2022-07-05T21:38:40;100058.00;;;16.80
18782;BMP180;9519;51.890;8.970;2022-07-05T21:43:43;100058.00;;;16.70
18782;BMP180;9519;51.890;8.970;2022-07-05T21:48:45;100060.00;;;16.70
18782;BMP180;9519;51.890;8.970;2022-07-05T21:53:48;100070.00;;;16.60
18782;BMP180;9519;51.890;8.970;2022-07-05T21:58:51;100075.00;;;16.50
18782;BMP180;9519;51.890;8.970;2022-07-05T22:04:11;100079.00;;;16.40
18782;BMP180;9519;51.890;8.970;2022-07-05T22:09:32;100084.00;;;16.30
18782;BMP180;9519;51.890;8.970;2022-07-05T22:14:39;100088.00;;;16.20
18782;BMP180;9519;51.890;8.970;2022-07-05T22:19:42;100093.00;;;16.10
18782;BMP180;9519;51.890;8.970;2022-07-05T22:24:44;100110.00;;;15.90
18782;BMP180;9519;51.890;8.970;2022-07-05T22:29:47;100102.00;;;15.60
18782;BMP180;9519;51.890;8.970;2022-07-05T22:34:50;100111.00;;;15.40
18782;BMP180;9519;51.890;8.970;2022-07-05T22:39:53;100110.00;;;15.10
18782;BMP180;9519;51.890;8.970;2022-07-05T22:44:56;100108.00;;;14.90
18782;BMP180;9519;51.890;8.970;2022-07-05T22:49:58;100109.00;;;14.80
18782;BMP180;9519;51.890;8.970;2022-07-05T22:55:00;100112.00;;;14.70
18782;BMP180;9519;51.890;8.970;2022-07-05T23:00:06;100111.00;;;14.50
18782;BMP180;9519;51.890;8.970;2022-07-05T23:05:09;100116.00;;;14.40
18782;BMP180;9519;51.890;8.970;2022-07-05T23:10:11;100118.00;;;14.40
18782;BMP180;9519;51.890;8.970;2022-07-05T23:15:14;100117.00;;;14.40
18782;BMP180;9519;51.890;8.970;2022-07-05T23:20:16;100119.00;;;14.30
18782;BMP180;9519;51.890;8.970;2022-07-05T23:25:18;100126.00;;;14.30
18782;BMP180;9519;51.890;8.970;2022-07-05T23:30:22;100125.00;;;14.30
18782;BMP180;9519;51.890;8.970;2022-07-05T23:35:24;100127.00;;;14.20
18782;BMP180;9519;51.890;8.970;2022-07-05T23:40:27;100129.00;;;14.10
18782;BMP180;9519;51.890;8.970;2022-07-05T23:45:30;100127.00;;;14.00
18782;BMP180;9519;51.890;8.970;2022-07-05T23:50:33;100134.00;;;13.90
18782;BMP180;9519;51.890;8.970;2022-07-05T23:55:35;100126.00;;;13.90
